sensor_id;sensor_type;location;lat;lon;timestamp;temperature;humidity
4425;DHT22;2225;53.568;13.266;2023-08-30T00:02:12;19.80;96.10
4425;DHT22;2225;53.568;13.266;2023-08-30T00:04:39;19.70;96.10
4425;DHT22;2225;53.568;13.266;2023-08-30T00:07:08;19.70;96.10
4425;DHT22;2225;53.568;13.266;2023-08-30T00:09:35;19.70;96.10
4425;DHT22;2225;53.568;13.266;2023-08-30T00:12:03;19.70;96.20
4425;DHT22;2225;53.568;13.266;2023-08-30T00:14:30;19.70;96.20
4425;DHT22;2225;53.568;13.266;2023-08-30T00:16:58;19.70;96.20
4425;DHT22;2225;53.568;13.266;2023-08-30T00:19:25;19.60;96.30
4425;DHT22;2225;53.568;13.266;2023-08-30T00:21:52;19.70;96.30
4425;DHT22;2225;53.568;13.266;2023-08-30T00:24:20;19.60;96.20
4425;DHT22;2225;53.568;13.266;2023-08-30T00:26:46;19.60;96.30
4425;DHT22;2225;53.568;13.266;2023-08-30T00:29:14;19.60;96.20
4425;DHT22;2225;53.568;13.266;2023-08-30T00:31:40;19.60;96.30
4425;DHT22;2225;53.568;13.266;2023-08-30T00:34:07;19.60;96.20
4425;DHT22;2225;53.568;13.266;2023-08-30T00:36:35;19.60;96.20
4425;DHT22;2225;53.568;13.266;2023-08-30T00:39:02;19.50;96.20
4425;DHT22;2225;53.568;13.266;2023-08-30T00:41:30;19.50;96.20
4425;DHT22;2225;53.568;13.266;2023-08-30T00:43:57;19.50;96.20
4425;DHT22;2225;53.568;13.266;2023-08-30T00:46:24;19.50;96.20
4425;DHT22;2225;53.568;13.266;2023-08-30T00:48:51;19.40;96.20
4425;DHT22;2225;53.568;13.266;2023-08-30T00:51:18;19.40;96.30
4425;DHT22;2225;53.568;13.266;2023-08-30T00:53:48;19.30;96.30
4425;DHT22;2225;53.568;13.266;2023-08-30T00:56:15;19.30;96.40
4425;DHT22;2225;53.568;13.266;2023-08-30T00:58:42;19.30;96.40
4425;DHT22;2225;53.568;13.266;2023-08-30T01:01:09;19.30;96.40
4425;DHT22;2225;53.568;13.266;2023-08-30T01:03:36;19.30;96.50
4425;DHT22;2225;53.568;13.266;2023-08-30T01:06:04;19.30;96.50
4425;DHT22;2225;53.568;13.266;2023-08-30T01:08:31;19.30;96.50
4425;DHT22;2225;53.568;13.266;2023-08-30T01:11:19;19.30;96.60
4425;DHT22;2225;53.568;13.266;2023-08-30T01:14:07;19.30;96.60
4425;DHT22;2225;53.568;13.266;2023-08-30T01:16:36;19.30;96.60
4425;DHT22;2225;53.568;13.266;2023-08-30T01:19:19;19.30;96.60
4425;DHT22;2225;53.568;13.266;2023-08-30T01:22:19;19.30;96.70
4425;DHT22;2225;53.568;13.266;2023-08-30T01:25:14;19.40;96.80
4425;DHT22;2225;53.568;13.266;2023-08-30T01:27:45;19.40;96.90
4425;DHT22;2225;53.568;13.266;2023-08-30T01:30:15;19.40;96.70
4425;DHT22;2225;53.568;13.266;2023-08-30T01:32:43;19.40;96.70
4425;DHT22;2225;53.568;13.266;2023-08-30T01:35:10;19.40;96.70
4425;DHT22;2225;53.568;13.266;2023-08-30T01:37:47;19.40;96.70
4425;DHT22;2225;53.568;13.266;2023-08-30T01:40:15;19.40;97.00
4425;DHT22;2225;53.568;13.266;2023-08-30T01:42:44;19.40;96.70
4425;DHT22;2225;53.568;13.266;2023-08-30T01:45:13;19.40;96.70
4425;DHT22;2225;53.568;13.266;2023-08-30T01:47:42;19.40;96.70
4425;DHT22;2225;53.568;13.266;2023-08-30T01:50:11;19.30;96.70
4425;DHT22;2225;53.568;13.266;2023-08-30T01:52:39;19.40;96.70
4425;DHT22;2225;53.568;13.266;2023-08-30T01:55:08;19.40;96.70
4425;DHT22;2225;53.568;13.266;2023-08-30T01:57:35;19.30;96.80
4425;DHT22;2225;53.568;13.266;2023-08-30T02:00:02;19.40;96.80
4425;DHT22;2225;53.568;13.266;2023-08-30T02:02:41;19.30;96.80
4425;DHT22;2225;53.568;13.266;2023-08-30T02:05:08;19.30;96.80
4425;DHT22;2225;53.568;13.266;2023-08-30T02:07:47;19.30;96.80
4425;DHT22;2225;53.568;13.266;2023-08-30T02:10:33;19.30;96.90
4425;DHT22;2225;53.568;13.266;2023-08-30T02:13:03;19.40;96.90
4425;DHT22;2225;53.568;13.266;2023-08-30T02:15:33;19.30;96.80
4425;DHT22;2225;53.568;13.266;2023-08-30T02:18:02;19.40;96.80
4425;DHT22;2225;53.568;13.266;2023-08-30T02:20:30;19.40;96.80
4425;DHT22;2225;53.568;13.266;2023-08-30T02:22:58;19.40;96.80
4425;DHT22;2225;53.568;13.266;2023-08-30T02:25:39;19.40;96.80
4425;DHT22;2225;53.568;13.266;2023-08-30T02:28:06;19.40;96.70
4425;DHT22;2225;53.568;13.266;2023-08-30T02:30:34;19.40;96.70
4425;DHT22;2225;53.568;13.266;2023-08-30T02:33:01;19.40;96.70
4425;DHT22;2225;53.568;13.266;2023-08-30T02:35:28;19.40;96.70
4425;DHT22;2225;53.568;13.266;2023-08-30T02:37:55;19.40;96.70
4425;DHT22;2225;53.568;13.266;2023-08-30T02:40:22;19.40;96.70
4425;DHT22;2225;53.568;13.266;2023-08-30T02:42:49;19.40;96.70
4425;DHT22;2225;53.568;13.266;2023-08-30T02:45:16;19.40;96.60
4425;DHT22;2225;53.568;13.266;2023-08-30T02:47:44;19.40;96.60
4425;DHT22;2225;53.568;13.266;2023-08-30T02:50:12;19.40;96.60
4425;DHT22;2225;53.568;13.266;2023-08-30T02:52:39;19.40;96.60
4425;DHT22;2225;53.568;13.266;2023-08-30T02:55:06;19.30;96.60
4425;DHT22;2225;53.568;13.266;2023-08-30T02:57:33;19.30;96.60
4425;DHT22;2225;53.568;13.266;2023-08-30T03:00:00;19.30;96.60
4425;DHT22;2225;53.568;13.266;2023-08-30T03:02:28;19.20;96.50
4425;DHT22;2225;53.568;13.266;2023-08-30T03:04:55;19.20;96.60
4425;DHT22;2225;53.568;13.266;2023-08-30T03:07:22;19.10;96.60
4425;DHT22;2225;53.568;13.266;2023-08-30T03:09:52;19.10;96.70
4425;DHT22;2225;53.568;13.266;2023-08-30T03:12:19;19.10;96.70
4425;DHT22;2225;53.568;13.266;2023-08-30T03:14:47;19.00;96.60
4425;DHT22;2225;53.568;13.266;2023-08-30T03:17:14;19.10;96.60
4425;DHT22;2225;53.568;13.266;2023-08-30T03:19:41;19.00;96.60
4425;DHT22;2225;53.568;13.266;2023-08-30T03:22:08;19.00;96.60
4425;DHT22;2225;53.568;13.266;2023-08-30T03:24:35;19.00;96.60
4425;DHT22;2225;53.568;13.266;2023-08-30T03:27:02;19.00;96.60
4425;DHT22;2225;53.568;13.266;2023-08-30T03:29:29;19.00;96.60
4425;DHT22;2225;53.568;13.266;2023-08-30T03:31:56;19.00;96.60
4425;DHT22;2225;53.568;13.266;2023-08-30T03:34:23;18.90;96.60
4425;DHT22;2225;53.568;13.266;2023-08-30T03:36:50;19.00;96.60
4425;DHT22;2225;53.568;13.266;2023-08-30T03:39:21;18.90;96.50
4425;DHT22;2225;53.568;13.266;2023-08-30T03:41:49;18.90;96.50
4425;DHT22;2225;53.568;13.266;2023-08-30T03:44:16;18.90;96.50
4425;DHT22;2225;53.568;13.266;2023-08-30T03:46:45;18.90;96.50
4425;DHT22;2225;53.568;13.266;2023-08-30T03:49:12;18.90;96.50
4425;DHT22;2225;53.568;13.266;2023-08-30T03:51:39;18.90;96.60
4425;DHT22;2225;53.568;13.266;2023-08-30T03:54:06;18.90;96.50
4425;DHT22;2225;53.568;13.266;2023-08-30T03:56:34;18.80;96.50
4425;DHT22;2225;53.568;13.266;2023-08-30T03:59:02;18.80;96.50
4425;DHT22;2225;53.568;13.266;2023-08-30T04:01:29;18.80;96.50
4425;DHT22;2225;53.568;13.266;2023-08-30T04:03:55;18.80;96.60
4425;DHT22;2225;53.568;13.266;2023-08-30T04:06:22;18.80;96.60
4425;DHT22;2225;53.568;13.266;2023-08-30T04:08:50;18.80;96.60
4425;DHT22;2225;53.568;13.266;2023-08-30T04:11:16;18.80;96.60
4425;DHT22;2225;53.568;13.266;2023-08-30T04:13:44;18.80;96.70
4425;DHT22;2225;53.568;13.266;2023-08-30T04:16:11;18.70;96.70
4425;DHT22;2225;53.568;13.266;2023-08-30T04:18:39;18.70;96.70
4425;DHT22;2225;53.568;13.266;2023-08-30T04:21:06;18.70;96.70
4425;DHT22;2225;53.568;13.266;2023-08-30T04:23:35;18.70;96.70
4425;DHT22;2225;53.568;13.266;2023-08-30T04:26:02;18.70;96.70
4425;DHT22;2225;53.568;13.266;2023-08-30T04:28:29;18.70;96.70
4425;DHT22;2225;53.568;13.266;2023-08-30T04:30:56;18.70;96.80
4425;DHT22;2225;53.568;13.266;2023-08-30T04:33:25;18.70;96.80
4425;DHT22;2225;53.568;13.266;2023-08-30T04:35:52;18.70;96.80
4425;DHT22;2225;53.568;13.266;2023-08-30T04:38:20;18.70;96.80
4425;DHT22;2225;53.568;13.266;2023-08-30T04:40:48;18.70;96.90
4425;DHT22;2225;53.568;13.266;2023-08-30T04:43:15;18.70;96.90
4425;DHT22;2225;53.568;13.266;2023-08-30T04:45:42;18.70;96.90
4425;DHT22;2225;53.568;13.266;2023-08-30T04:48:13;18.80;96.90
4425;DHT22;2225;53.568;13.266;2023-08-30T04:50:41;18.70;96.90
4425;DHT22;2225;53.568;13.266;2023-08-30T04:53:09;18.80;96.90
4425;DHT22;2225;53.568;13.266;2023-08-30T04:55:37;18.80;96.80
4425;DHT22;2225;53.568;13.266;2023-08-30T04:58:03;18.80;96.90
4425;DHT22;2225;53.568;13.266;2023-08-30T05:00:34;18.80;96.90
4425;DHT22;2225;53.568;13.266;2023-08-30T05:03:02;18.80;96.90
4425;DHT22;2225;53.568;13.266;2023-08-30T05:05:29;18.80;96.90
4425;DHT22;2225;53.568;13.266;2023-08-30T05:07:58;18.90;97.00
4425;DHT22;2225;53.568;13.266;2023-08-30T05:10:25;18.90;97.00
4425;DHT22;2225;53.568;13.266;2023-08-30T05:12:53;18.90;97.00
4425;DHT22;2225;53.568;13.266;2023-08-30T05:15:20;18.90;97.00
4425;DHT22;2225;53.568;13.266;2023-08-30T05:17:47;18.90;97.10
4425;DHT22;2225;53.568;13.266;2023-08-30T05:20:14;19.00;97.10
4425;DHT22;2225;53.568;13.266;2023-08-30T05:22:41;19.00;97.10
4425;DHT22;2225;53.568;13.266;2023-08-30T05:25:08;19.00;97.10
4425;DHT22;2225;53.568;13.266;2023-08-30T05:27:35;19.10;97.10
4425;DHT22;2225;53.568;13.266;2023-08-30T05:30:02;19.10;97.10
4425;DHT22;2225;53.568;13.266;2023-08-30T05:32:30;19.10;97.00
4425;DHT22;2225;53.568;13.266;2023-08-30T05:35:16;19.10;97.10
4425;DHT22;2225;53.568;13.266;2023-08-30T05:38:19;19.20;97.10
4425;DHT22;2225;53.568;13.266;2023-08-30T05:40:57;19.20;97.00
4425;DHT22;2225;53.568;13.266;2023-08-30T05:43:24;19.20;97.00
4425;DHT22;2225;53.568;13.266;2023-08-30T05:45:51;19.30;97.00
4425;DHT22;2225;53.568;13.266;2023-08-30T05:48:20;19.30;97.00
4425;DHT22;2225;53.568;13.266;2023-08-30T05:50:47;19.30;97.00
4425;DHT22;2225;53.568;13.266;2023-08-30T05:53:14;19.40;97.10
4425;DHT22;2225;53.568;13.266;2023-08-30T05:55:41;19.40;97.00
4425;DHT22;2225;53.568;13.266;2023-08-30T05:58:08;19.50;97.10
4425;DHT22;2225;53.568;13.266;2023-08-30T06:00:36;19.50;97.00
4425;DHT22;2225;53.568;13.266;2023-08-30T06:03:03;19.60;97.00
4425;DHT22;2225;53.568;13.266;2023-08-30T06:05:30;19.70;96.90
4425;DHT22;2225;53.568;13.266;2023-08-30T06:07:57;19.70;96.80
4425;DHT22;2225;53.568;13.266;2023-08-30T06:10:24;19.80;96.80
4425;DHT22;2225;53.568;13.266;2023-08-30T06:12:51;19.80;96.70
4425;DHT22;2225;53.568;13.266;2023-08-30T06:15:18;19.90;96.70
4425;DHT22;2225;53.568;13.266;2023-08-30T06:17:45;19.90;96.60
4425;DHT22;2225;53.568;13.266;2023-08-30T06:20:13;20.00;96.60
4425;DHT22;2225;53.568;13.266;2023-08-30T06:22:40;20.00;96.50
4425;DHT22;2225;53.568;13.266;2023-08-30T06:25:11;20.10;96.50
4425;DHT22;2225;53.568;13.266;2023-08-30T06:27:42;20.20;96.50
4425;DHT22;2225;53.568;13.266;2023-08-30T06:30:10;20.30;96.40
4425;DHT22;2225;53.568;13.266;2023-08-30T06:32:38;20.30;96.20
4425;DHT22;2225;53.568;13.266;2023-08-30T06:35:05;20.40;96.10
4425;DHT22;2225;53.568;13.266;2023-08-30T06:37:32;20.50;96.10
4425;DHT22;2225;53.568;13.266;2023-08-30T06:39:59;20.60;95.70
4425;DHT22;2225;53.568;13.266;2023-08-30T06:42:26;20.60;95.40
4425;DHT22;2225;53.568;13.266;2023-08-30T06:44:52;20.70;95.50
4425;DHT22;2225;53.568;13.266;2023-08-30T06:47:19;20.70;95.40
4425;DHT22;2225;53.568;13.266;2023-08-30T06:49:47;20.80;95.20
4425;DHT22;2225;53.568;13.266;2023-08-30T06:52:14;20.90;95.10
4425;DHT22;2225;53.568;13.266;2023-08-30T06:54:41;20.90;95.30
4425;DHT22;2225;53.568;13.266;2023-08-30T06:57:08;21.00;95.20
4425;DHT22;2225;53.568;13.266;2023-08-30T06:59:35;21.10;95.00
4425;DHT22;2225;53.568;13.266;2023-08-30T07:02:03;21.10;94.90
4425;DHT22;2225;53.568;13.266;2023-08-30T07:04:30;21.20;94.60
4425;DHT22;2225;53.568;13.266;2023-08-30T07:06:57;21.30;94.60
4425;DHT22;2225;53.568;13.266;2023-08-30T07:09:24;21.40;94.70
4425;DHT22;2225;53.568;13.266;2023-08-30T07:11:55;21.50;94.90
4425;DHT22;2225;53.568;13.266;2023-08-30T07:14:22;21.60;94.40
4425;DHT22;2225;53.568;13.266;2023-08-30T07:16:49;21.70;94.30
4425;DHT22;2225;53.568;13.266;2023-08-30T07:19:16;21.70;94.30
4425;DHT22;2225;53.568;13.266;2023-08-30T07:21:43;21.80;94.40
4425;DHT22;2225;53.568;13.266;2023-08-30T07:24:10;21.90;93.80
4425;DHT22;2225;53.568;13.266;2023-08-30T07:26:37;22.00;93.70
4425;DHT22;2225;53.568;13.266;2023-08-30T07:29:04;22.10;93.70
4425;DHT22;2225;53.568;13.266;2023-08-30T07:31:32;22.20;93.60
4425;DHT22;2225;53.568;13.266;2023-08-30T07:33:59;22.20;93.60
4425;DHT22;2225;53.568;13.266;2023-08-30T07:36:27;22.30;92.70
4425;DHT22;2225;53.568;13.266;2023-08-30T07:39:12;22.40;92.60
4425;DHT22;2225;53.568;13.266;2023-08-30T07:41:39;22.50;92.70
4425;DHT22;2225;53.568;13.266;2023-08-30T07:44:06;22.60;92.50
4425;DHT22;2225;53.568;13.266;2023-08-30T07:46:33;22.60;92.40
4425;DHT22;2225;53.568;13.266;2023-08-30T07:49:00;22.70;92.10
4425;DHT22;2225;53.568;13.266;2023-08-30T07:51:27;22.80;91.70
4425;DHT22;2225;53.568;13.266;2023-08-30T07:53:54;22.90;91.20
4425;DHT22;2225;53.568;13.266;2023-08-30T07:56:21;22.90;91.00
4425;DHT22;2225;53.568;13.266;2023-08-30T07:58:48;22.90;90.50
4425;DHT22;2225;53.568;13.266;2023-08-30T08:01:15;23.00;90.40
4425;DHT22;2225;53.568;13.266;2023-08-30T08:03:42;23.00;90.30
4425;DHT22;2225;53.568;13.266;2023-08-30T08:06:29;23.00;90.50
4425;DHT22;2225;53.568;13.266;2023-08-30T08:08:56;23.10;90.40
4425;DHT22;2225;53.568;13.266;2023-08-30T08:11:23;23.10;90.10
4425;DHT22;2225;53.568;13.266;2023-08-30T08:13:50;23.10;90.10
4425;DHT22;2225;53.568;13.266;2023-08-30T08:16:17;23.20;90.00
4425;DHT22;2225;53.568;13.266;2023-08-30T08:18:44;23.20;90.00
4425;DHT22;2225;53.568;13.266;2023-08-30T08:21:11;23.20;89.70
4425;DHT22;2225;53.568;13.266;2023-08-30T08:23:38;23.30;89.20
4425;DHT22;2225;53.568;13.266;2023-08-30T08:26:08;23.30;89.10
4425;DHT22;2225;53.568;13.266;2023-08-30T08:28:35;23.30;88.10
4425;DHT22;2225;53.568;13.266;2023-08-30T08:31:02;23.40;88.30
4425;DHT22;2225;53.568;13.266;2023-08-30T08:33:29;23.40;88.50
4425;DHT22;2225;53.568;13.266;2023-08-30T08:35:56;23.40;88.20
4425;DHT22;2225;53.568;13.266;2023-08-30T08:38:23;23.40;87.30
4425;DHT22;2225;53.568;13.266;2023-08-30T08:40:53;23.40;87.50
4425;DHT22;2225;53.568;13.266;2023-08-30T08:43:29;23.50;87.70
4425;DHT22;2225;53.568;13.266;2023-08-30T08:46:02;23.50;87.90
4425;DHT22;2225;53.568;13.266;2023-08-30T08:48:39;23.50;87.50
4425;DHT22;2225;53.568;13.266;2023-08-30T08:51:06;23.50;87.20
4425;DHT22;2225;53.568;13.266;2023-08-30T08:53:34;23.50;87.30
4425;DHT22;2225;53.568;13.266;2023-08-30T08:56:01;23.50;87.50
4425;DHT22;2225;53.568;13.266;2023-08-30T08:58:28;23.50;87.90
4425;DHT22;2225;53.568;13.266;2023-08-30T09:00:56;23.60;87.50
4425;DHT22;2225;53.568;13.266;2023-08-30T09:03:23;23.60;86.80
4425;DHT22;2225;53.568;13.266;2023-08-30T09:05:51;23.60;87.40
4425;DHT22;2225;53.568;13.266;2023-08-30T09:08:19;23.60;87.20
4425;DHT22;2225;53.568;13.266;2023-08-30T09:10:47;23.60;86.90
4425;DHT22;2225;53.568;13.266;2023-08-30T09:13:17;23.60;86.80
4425;DHT22;2225;53.568;13.266;2023-08-30T09:15:44;23.70;87.20
4425;DHT22;2225;53.568;13.266;2023-08-30T09:18:18;23.70;86.90
4425;DHT22;2225;53.568;13.266;2023-08-30T09:20:45;23.70;86.10
4425;DHT22;2225;53.568;13.266;2023-08-30T09:23:21;23.80;86.70
4425;DHT22;2225;53.568;13.266;2023-08-30T09:25:54;23.80;86.30
4425;DHT22;2225;53.568;13.266;2023-08-30T09:28:22;23.90;86.50
4425;DHT22;2225;53.568;13.266;2023-08-30T09:30:49;23.90;85.00
4425;DHT22;2225;53.568;13.266;2023-08-30T09:33:30;24.00;84.90
4425;DHT22;2225;53.568;13.266;2023-08-30T09:36:00;24.00;83.80
4425;DHT22;2225;53.568;13.266;2023-08-30T09:38:27;24.00;84.60
4425;DHT22;2225;53.568;13.266;2023-08-30T09:41:04;24.00;85.00
4425;DHT22;2225;53.568;13.266;2023-08-30T09:43:32;24.10;84.00
4425;DHT22;2225;53.568;13.266;2023-08-30T09:46:04;24.10;84.30
4425;DHT22;2225;53.568;13.266;2023-08-30T09:48:32;24.20;83.60
4425;DHT22;2225;53.568;13.266;2023-08-30T09:50:59;24.20;84.30
4425;DHT22;2225;53.568;13.266;2023-08-30T09:53:29;24.20;83.30
4425;DHT22;2225;53.568;13.266;2023-08-30T09:55:59;24.30;83.70
4425;DHT22;2225;53.568;13.266;2023-08-30T09:58:28;24.40;83.10
4425;DHT22;2225;53.568;13.266;2023-08-30T10:00:56;24.40;82.90
4425;DHT22;2225;53.568;13.266;2023-08-30T10:03:23;24.50;82.70
4425;DHT22;2225;53.568;13.266;2023-08-30T10:05:58;24.50;82.10
4425;DHT22;2225;53.568;13.266;2023-08-30T10:08:25;24.60;81.40
4425;DHT22;2225;53.568;13.266;2023-08-30T10:10:58;24.60;81.50
4425;DHT22;2225;53.568;13.266;2023-08-30T10:13:26;24.70;81.20
4425;DHT22;2225;53.568;13.266;2023-08-30T10:16:01;24.70;80.80
4425;DHT22;2225;53.568;13.266;2023-08-30T10:18:32;24.80;79.70
4425;DHT22;2225;53.568;13.266;2023-08-30T10:21:02;24.80;79.20
4425;DHT22;2225;53.568;13.266;2023-08-30T10:23:34;24.80;79.30
4425;DHT22;2225;53.568;13.266;2023-08-30T10:26:03;24.90;79.00
4425;DHT22;2225;53.568;13.266;2023-08-30T10:28:33;24.90;78.40
4425;DHT22;2225;53.568;13.266;2023-08-30T10:31:01;24.90;78.80
4425;DHT22;2225;53.568;13.266;2023-08-30T10:33:28;24.80;79.20
4425;DHT22;2225;53.568;13.266;2023-08-30T10:36:04;24.80;79.00
4425;DHT22;2225;53.568;13.266;2023-08-30T10:38:32;24.90;79.00
4425;DHT22;2225;53.568;13.266;2023-08-30T10:41:06;24.90;77.40
4425;DHT22;2225;53.568;13.266;2023-08-30T10:43:35;25.00;77.60
4425;DHT22;2225;53.568;13.266;2023-08-30T10:46:05;25.00;78.00
4425;DHT22;2225;53.568;13.266;2023-08-30T10:48:39;25.10;76.40
4425;DHT22;2225;53.568;13.266;2023-08-30T10:51:21;25.20;76.30
4425;DHT22;2225;53.568;13.266;2023-08-30T10:53:56;25.20;76.60
4425;DHT22;2225;53.568;13.266;2023-08-30T10:56:29;25.30;76.20
4425;DHT22;2225;53.568;13.266;2023-08-30T10:58:57;25.40;75.80
4425;DHT22;2225;53.568;13.266;2023-08-30T11:01:24;25.40;75.90
4425;DHT22;2225;53.568;13.266;2023-08-30T11:03:51;25.50;75.80
4425;DHT22;2225;53.568;13.266;2023-08-30T11:06:31;25.50;75.90
4425;DHT22;2225;53.568;13.266;2023-08-30T11:08:58;25.70;75.00
4425;DHT22;2225;53.568;13.266;2023-08-30T11:11:25;25.70;72.10
4425;DHT22;2225;53.568;13.266;2023-08-30T11:13:52;25.80;71.70
4425;DHT22;2225;53.568;13.266;2023-08-30T11:16:22;25.80;72.30
4425;DHT22;2225;53.568;13.266;2023-08-30T11:18:49;25.90;71.60
4425;DHT22;2225;53.568;13.266;2023-08-30T11:21:16;25.90;71.00
4425;DHT22;2225;53.568;13.266;2023-08-30T11:23:43;25.90;72.20
4425;DHT22;2225;53.568;13.266;2023-08-30T11:26:11;25.90;72.20
4425;DHT22;2225;53.568;13.266;2023-08-30T11:28:42;25.90;72.40
4425;DHT22;2225;53.568;13.266;2023-08-30T11:33:56;26.00;72.40
4425;DHT22;2225;53.568;13.266;2023-08-30T11:36:28;26.10;70.60
4425;DHT22;2225;53.568;13.266;2023-08-30T11:38:56;26.10;70.00
4425;DHT22;2225;53.568;13.266;2023-08-30T11:41:24;26.10;70.10
4425;DHT22;2225;53.568;13.266;2023-08-30T11:43:52;26.10;69.90
4425;DHT22;2225;53.568;13.266;2023-08-30T11:46:20;26.10;69.70
4425;DHT22;2225;53.568;13.266;2023-08-30T11:48:50;26.10;70.10
4425;DHT22;2225;53.568;13.266;2023-08-30T11:51:18;26.10;70.40
4425;DHT22;2225;53.568;13.266;2023-08-30T11:53:46;26.10;70.60
4425;DHT22;2225;53.568;13.266;2023-08-30T11:56:13;26.10;69.50
4425;DHT22;2225;53.568;13.266;2023-08-30T11:58:40;26.20;70.70
4425;DHT22;2225;53.568;13.266;2023-08-30T12:01:08;26.20;69.40
4425;DHT22;2225;53.568;13.266;2023-08-30T12:03:35;26.20;69.30
4425;DHT22;2225;53.568;13.266;2023-08-30T12:06:09;26.20;69.30
4425;DHT22;2225;53.568;13.266;2023-08-30T12:08:38;26.20;70.40
4425;DHT22;2225;53.568;13.266;2023-08-30T12:11:17;26.20;70.50
4425;DHT22;2225;53.568;13.266;2023-08-30T12:13:46;26.20;69.20
4425;DHT22;2225;53.568;13.266;2023-08-30T12:16:17;26.10;69.70
4425;DHT22;2225;53.568;13.266;2023-08-30T12:18:44;26.10;69.20
4425;DHT22;2225;53.568;13.266;2023-08-30T12:21:13;26.20;70.00
4425;DHT22;2225;53.568;13.266;2023-08-30T12:23:41;26.20;70.60
4425;DHT22;2225;53.568;13.266;2023-08-30T12:26:11;26.20;71.20
4425;DHT22;2225;53.568;13.266;2023-08-30T12:28:40;26.20;70.70
4425;DHT22;2225;53.568;13.266;2023-08-30T12:31:08;26.30;71.30
4425;DHT22;2225;53.568;13.266;2023-08-30T12:33:35;26.30;70.60
4425;DHT22;2225;53.568;13.266;2023-08-30T12:36:03;26.20;69.80
4425;DHT22;2225;53.568;13.266;2023-08-30T12:38:30;26.20;69.20
4425;DHT22;2225;53.568;13.266;2023-08-30T12:40:57;26.20;70.20
4425;DHT22;2225;53.568;13.266;2023-08-30T12:43:24;26.20;71.40
4425;DHT22;2225;53.568;13.266;2023-08-30T12:45:51;26.20;71.30
4425;DHT22;2225;53.568;13.266;2023-08-30T12:48:18;26.20;70.80
4425;DHT22;2225;53.568;13.266;2023-08-30T12:50:47;26.20;69.70
4425;DHT22;2225;53.568;13.266;2023-08-30T12:53:15;26.20;69.80
4425;DHT22;2225;53.568;13.266;2023-08-30T12:55:44;26.20;69.40
4425;DHT22;2225;53.568;13.266;2023-08-30T12:58:12;26.10;68.90
4425;DHT22;2225;53.568;13.266;2023-08-30T13:00:40;26.20;69.30
4425;DHT22;2225;53.568;13.266;2023-08-30T13:03:07;26.20;69.10
4425;DHT22;2225;53.568;13.266;2023-08-30T13:05:34;26.10;69.90
4425;DHT22;2225;53.568;13.266;2023-08-30T13:08:03;26.20;70.40
4425;DHT22;2225;53.568;13.266;2023-08-30T13:10:31;26.10;69.80
4425;DHT22;2225;53.568;13.266;2023-08-30T13:12:58;26.20;69.40
4425;DHT22;2225;53.568;13.266;2023-08-30T13:15:25;26.10;70.40
4425;DHT22;2225;53.568;13.266;2023-08-30T13:17:52;26.10;70.20
4425;DHT22;2225;53.568;13.266;2023-08-30T13:20:19;26.10;70.40
4425;DHT22;2225;53.568;13.266;2023-08-30T13:22:46;26.10;69.60
4425;DHT22;2225;53.568;13.266;2023-08-30T13:25:13;26.10;69.90
4425;DHT22;2225;53.568;13.266;2023-08-30T13:27:40;26.10;70.60
4425;DHT22;2225;53.568;13.266;2023-08-30T13:30:07;26.10;71.00
4425;DHT22;2225;53.568;13.266;2023-08-30T13:32:34;26.10;71.10
4425;DHT22;2225;53.568;13.266;2023-08-30T13:35:01;26.10;71.90
4425;DHT22;2225;53.568;13.266;2023-08-30T13:37:29;26.00;71.50
4425;DHT22;2225;53.568;13.266;2023-08-30T13:39:56;26.00;72.00
4425;DHT22;2225;53.568;13.266;2023-08-30T13:42:23;25.90;72.10
4425;DHT22;2225;53.568;13.266;2023-08-30T13:44:50;25.90;71.80
4425;DHT22;2225;53.568;13.266;2023-08-30T13:47:17;25.90;72.10
4425;DHT22;2225;53.568;13.266;2023-08-30T13:49:45;25.90;71.90
4425;DHT22;2225;53.568;13.266;2023-08-30T13:52:12;25.90;72.10
4425;DHT22;2225;53.568;13.266;2023-08-30T13:54:39;25.90;72.10
4425;DHT22;2225;53.568;13.266;2023-08-30T13:57:06;25.90;71.80
4425;DHT22;2225;53.568;13.266;2023-08-30T13:59:33;26.00;72.30
4425;DHT22;2225;53.568;13.266;2023-08-30T14:02:03;26.00;72.10
4425;DHT22;2225;53.568;13.266;2023-08-30T14:04:31;26.00;72.10
4425;DHT22;2225;53.568;13.266;2023-08-30T14:07:02;25.90;72.00
4425;DHT22;2225;53.568;13.266;2023-08-30T14:09:30;25.90;72.40
4425;DHT22;2225;53.568;13.266;2023-08-30T14:11:57;25.80;72.30
4425;DHT22;2225;53.568;13.266;2023-08-30T14:14:24;25.90;72.70
4425;DHT22;2225;53.568;13.266;2023-08-30T14:16:51;25.80;72.20
4425;DHT22;2225;53.568;13.266;2023-08-30T14:19:18;25.90;71.70
4425;DHT22;2225;53.568;13.266;2023-08-30T14:21:45;25.90;71.10
4425;DHT22;2225;53.568;13.266;2023-08-30T14:24:12;25.90;70.90
4425;DHT22;2225;53.568;13.266;2023-08-30T14:26:39;25.90;71.50
4425;DHT22;2225;53.568;13.266;2023-08-30T14:29:05;25.90;71.20
4425;DHT22;2225;53.568;13.266;2023-08-30T14:31:32;25.90;71.30
4425;DHT22;2225;53.568;13.266;2023-08-30T14:33:59;26.00;71.40
4425;DHT22;2225;53.568;13.266;2023-08-30T14:36:26;26.00;71.00
4425;DHT22;2225;53.568;13.266;2023-08-30T14:38:53;26.00;70.50
4425;DHT22;2225;53.568;13.266;2023-08-30T14:41:20;26.00;70.40
4425;DHT22;2225;53.568;13.266;2023-08-30T14:43:47;26.00;70.00
4425;DHT22;2225;53.568;13.266;2023-08-30T14:46:14;26.00;70.90
4425;DHT22;2225;53.568;13.266;2023-08-30T14:48:49;26.00;70.80
4425;DHT22;2225;53.568;13.266;2023-08-30T14:51:16;26.00;69.90
4425;DHT22;2225;53.568;13.266;2023-08-30T14:53:43;26.00;70.20
4425;DHT22;2225;53.568;13.266;2023-08-30T14:56:10;25.90;70.40
4425;DHT22;2225;53.568;13.266;2023-08-30T14:58:38;25.90;69.90
4425;DHT22;2225;53.568;13.266;2023-08-30T15:01:05;25.90;70.60
4425;DHT22;2225;53.568;13.266;2023-08-30T15:03:32;25.90;70.70
4425;DHT22;2225;53.568;13.266;2023-08-30T15:05:59;25.90;70.30
4425;DHT22;2225;53.568;13.266;2023-08-30T15:08:26;25.90;70.50
4425;DHT22;2225;53.568;13.266;2023-08-30T15:10:53;25.90;69.60
4425;DHT22;2225;53.568;13.266;2023-08-30T15:13:20;25.90;70.10
4425;DHT22;2225;53.568;13.266;2023-08-30T15:15:47;25.80;69.60
4425;DHT22;2225;53.568;13.266;2023-08-30T15:18:15;25.80;69.20
4425;DHT22;2225;53.568;13.266;2023-08-30T15:20:43;25.70;70.20
4425;DHT22;2225;53.568;13.266;2023-08-30T15:23:12;25.70;70.00
4425;DHT22;2225;53.568;13.266;2023-08-30T15:25:48;25.70;70.30
4425;DHT22;2225;53.568;13.266;2023-08-30T15:28:16;25.70;70.00
4425;DHT22;2225;53.568;13.266;2023-08-30T15:30:44;25.60;70.00
4425;DHT22;2225;53.568;13.266;2023-08-30T15:33:12;25.60;70.50
4425;DHT22;2225;53.568;13.266;2023-08-30T15:35:46;25.60;70.50
4425;DHT22;2225;53.568;13.266;2023-08-30T15:38:12;25.70;69.90
4425;DHT22;2225;53.568;13.266;2023-08-30T15:40:40;25.60;69.50
4425;DHT22;2225;53.568;13.266;2023-08-30T15:43:08;25.60;69.60
4425;DHT22;2225;53.568;13.266;2023-08-30T15:45:35;25.60;69.70
4425;DHT22;2225;53.568;13.266;2023-08-30T15:48:03;25.60;70.00
4425;DHT22;2225;53.568;13.266;2023-08-30T15:50:30;25.50;70.20
4425;DHT22;2225;53.568;13.266;2023-08-30T15:52:57;25.50;70.10
4425;DHT22;2225;53.568;13.266;2023-08-30T15:55:24;25.50;70.30
4425;DHT22;2225;53.568;13.266;2023-08-30T15:57:55;25.50;69.80